Time;durP1;ratioP1;P1;durP2;ratioP2;P2;SDS_P1;SDS_P2;PMS_P1;PMS_P2;Temp;Humidity;BMP_temperature;BMP_pressure;BME280_temperature;BME280_humidity;BME280_pressure;Samples;Min_cycle;Max_cycle;Signal;HPM_P1;HPM_P2
2021/04/30 07:25:22;;;;;;;1999.90;999.90;;;8.80;99.90;;;;;;5064685;28;20453;-71
2021/04/30 07:27:49;;;;;;;1999.90;999.90;;;8.80;99.90;;;;;;5074699;28;20137;-72
2021/04/30 07:30:16;;;;;;;1999.90;999.90;;;8.80;99.90;;;;;;5060709;28;20055;-71
2021/04/30 07:32:43;;;;;;;1999.90;999.90;;;8.80;99.90;;;;;;5086473;28;20054;-71
2021/04/30 07:35:18;;;;;;;1999.90;999.90;;;8.90;99.90;;;;;;5094381;28;20040;-71
2021/04/30 07:37:45;;;;;;;1999.90;999.90;;;8.90;99.90;;;;;;5083238;28;20079;-72
2021/04/30 07:40:11;;;;;;;1999.90;999.90;;;8.90;99.90;;;;;;5076833;28;20050;-72
2021/04/30 07:42:37;;;;;;;1999.90;999.90;;;8.90;99.90;;;;;;5081390;28;20064;-72
2021/04/30 07:45:04;;;;;;;1999.90;999.90;;;8.90;99.90;;;;;;5077017;28;20059;-71
2021/04/30 07:47:31;;;;;;;1999.90;999.90;;;8.90;99.90;;;;;;5084774;28;20135;-72
2021/04/30 07:49:58;;;;;;;1999.90;999.90;;;8.90;99.90;;;;;;5073794;28;20648;-71
2021/04/30 07:52:24;;;;;;;1999.90;999.90;;;8.90;99.90;;;;;;5077657;28;20051;-71
2021/04/30 07:54:50;;;;;;;1999.90;999.90;;;8.90;99.90;;;;;;5076802;28;20066;-72
2021/04/30 07:57:16;;;;;;;1999.90;999.90;;;9.00;99.90;;;;;;5083816;28;20044;-71
2021/04/30 07:59:43;;;;;;;1999.90;999.90;;;9.00;99.90;;;;;;5088069;28;20044;-72
2021/04/30 08:02:09;;;;;;;1999.90;999.90;;;9.00;99.90;;;;;;5078940;28;20752;-71
2021/04/30 08:04:36;;;;;;;1999.90;999.90;;;9.00;99.90;;;;;;5093963;28;20048;-72
2021/04/30 08:07:03;;;;;;;1999.90;999.90;;;9.10;99.90;;;;;;5088402;28;20040;-72
2021/04/30 08:09:29;;;;;;;1999.90;999.90;;;9.10;99.90;;;;;;5086375;28;20079;-71
2021/04/30 08:11:56;;;;;;;1999.90;999.90;;;9.10;99.90;;;;;;5084231;28;20052;-72
2021/04/30 08:14:22;;;;;;;1999.90;999.90;;;9.30;99.90;;;;;;5086054;28;20050;-72
2021/04/30 08:16:48;;;;;;;1999.90;999.90;;;9.30;99.90;;;;;;5091877;28;20079;-72
2021/04/30 08:19:15;;;;;;;1999.90;999.90;;;9.40;99.90;;;;;;5096532;28;20127;-72
2021/04/30 08:21:41;;;;;;;1999.90;999.90;;;9.50;99.90;;;;;;5088353;28;20127;-72
2021/04/30 08:24:08;;;;;;;1999.90;999.90;;;9.50;99.90;;;;;;5097331;28;20119;-72
2021/04/30 08:26:34;;;;;;;1999.90;999.90;;;9.60;99.90;;;;;;5077258;28;20191;-71
2021/04/30 08:29:00;;;;;;;1999.90;999.90;;;9.70;99.90;;;;;;5102507;28;20044;-73
2021/04/30 08:31:27;;;;;;;1999.90;999.90;;;9.70;99.90;;;;;;5088704;28;20039;-72
2021/04/30 08:33:55;;;;;;;1999.90;999.90;;;9.70;99.90;;;;;;5089194;28;20052;-71
2021/04/30 08:36:21;;;;;;;1999.90;999.90;;;9.80;99.90;;;;;;5088768;28;20055;-72
2021/04/30 08:38:48;;;;;;;1999.90;999.90;;;9.70;99.90;;;;;;5090295;28;20048;-72
2021/04/30 08:41:18;;;;;;;1999.90;999.90;;;9.70;99.90;;;;;;5089530;28;20063;-71
2021/04/30 08:43:46;;;;;;;1999.90;999.90;;;9.80;99.90;;;;;;5088763;28;20362;-71
2021/04/30 08:46:13;;;;;;;1999.90;999.90;;;9.70;99.90;;;;;;5084828;28;20050;-71
2021/04/30 08:48:40;;;;;;;1999.90;999.90;;;9.70;99.90;;;;;;5097985;28;20059;-72
2021/04/30 08:51:06;;;;;;;1999.90;999.90;;;9.70;99.90;;;;;;5076068;28;20117;-72
2021/04/30 08:53:32;;;;;;;1999.90;999.90;;;9.60;99.90;;;;;;5082555;28;20058;-72
2021/04/30 08:56:02;;;;;;;1999.90;999.90;;;9.60;99.90;;;;;;5089756;28;20050;-72
2021/04/30 08:58:29;;;;;;;1999.90;999.90;;;9.60;99.90;;;;;;5108516;28;20051;-71
2021/04/30 09:00:56;;;;;;;1999.90;999.90;;;9.50;99.90;;;;;;5076620;28;20648;-72
2021/04/30 09:03:23;;;;;;;1999.90;999.90;;;9.50;99.90;;;;;;5081899;28;20044;-72
2021/04/30 09:05:51;;;;;;;1999.90;999.90;;;9.50;99.90;;;;;;5090687;28;20044;-72
2021/04/30 09:08:18;;;;;;;1999.90;999.90;;;9.50;99.90;;;;;;5096722;28;20482;-72
2021/04/30 09:11:04;;;;;;;1999.90;999.90;;;9.50;99.90;;;;;;5087474;28;20048;-72
2021/04/30 09:13:31;;;;;;;1999.90;999.90;;;9.50;99.90;;;;;;5074546;28;20044;-72
2021/04/30 09:16:05;;;;;;;1999.90;999.90;;;9.40;99.90;;;;;;5090038;28;20105;-72
2021/04/30 09:18:33;;;;;;;1999.90;999.90;;;9.50;99.90;;;;;;5097949;28;20606;-72
2021/04/30 09:21:10;;;;;;;1999.90;999.90;;;9.50;99.90;;;;;;5091372;28;20047;-72
2021/04/30 09:23:46;;;;;;;1999.90;999.90;;;9.60;99.90;;;;;;5073647;28;20229;-72
2021/04/30 09:26:23;;;;;;;1999.90;999.90;;;9.60;99.90;;;;;;5085827;28;20055;-71
2021/04/30 09:29:21;;;;;;;1999.90;999.90;;;9.70;99.90;;;;;;5085646;28;20044;-72
2021/04/30 09:31:50;;;;;;;1999.90;999.90;;;9.80;99.90;;;;;;5049841;28;20458;-72
2021/04/30 09:34:31;;;;;;;1999.90;999.90;;;9.80;99.90;;;;;;5094612;28;20377;-72
2021/04/30 09:36:59;;;;;;;1999.90;999.90;;;9.90;99.90;;;;;;5073320;28;20055;-72
2021/04/30 09:39:26;;;;;;;1999.90;999.90;;;10.00;99.90;;;;;;5091961;28;20050;-72
2021/04/30 09:42:05;;;;;;;1999.90;999.90;;;10.00;99.90;;;;;;5088186;28;20399;-72
2021/04/30 09:44:42;;;;;;;1999.90;999.90;;;10.00;99.90;;;;;;5083447;28;20050;-72
2021/04/30 09:47:28;;;;;;;1999.90;999.90;;;10.10;99.90;;;;;;5090750;28;20139;-72
2021/04/30 09:49:57;;;;;;;1999.90;999.90;;;10.10;99.90;;;;;;5083532;28;20498;-72
2021/04/30 09:52:24;;;;;;;1999.90;999.90;;;10.10;99.90;;;;;;5086115;28;20048;-72
2021/04/30 09:54:52;;;;;;;1999.90;999.90;;;10.10;99.90;;;;;;5080331;28;20075;-72
2021/04/30 09:57:20;;;;;;;1999.90;999.90;;;10.10;99.90;;;;;;5085598;28;20040;-71
2021/04/30 09:59:59;;;;;;;1999.90;999.90;;;10.10;99.90;;;;;;5086945;28;20127;-72
2021/04/30 10:02:30;;;;;;;1999.90;999.90;;;10.10;99.90;;;;;;5089990;28;20657;-72
2021/04/30 10:05:06;;;;;;;1999.90;999.90;;;10.10;99.90;;;;;;5086300;28;20140;-72
2021/04/30 10:07:37;;;;;;;1999.90;999.90;;;10.10;99.90;;;;;;5077032;28;20467;-71
2021/04/30 10:10:17;;;;;;;1999.90;999.90;;;10.00;99.90;;;;;;5085529;28;20044;-72
2021/04/30 10:12:45;;;;;;;1999.90;999.90;;;10.00;99.90;;;;;;5086996;28;20052;-72
2021/04/30 10:15:15;;;;;;;1999.90;999.90;;;10.10;99.90;;;;;;5073798;28;20156;-72
2021/04/30 10:17:44;;;;;;;1999.90;999.90;;;10.10;99.90;;;;;;5084333;28;20048;-72
2021/04/30 10:20:15;;;;;;;1999.90;999.90;;;10.10;99.90;;;;;;5075282;28;20398;-72
2021/04/30 10:22:43;;;;;;;1999.90;999.90;;;10.20;99.90;;;;;;5090774;28;20874;-72
2021/04/30 10:25:19;;;;;;;1999.90;999.90;;;10.30;99.90;;;;;;5070000;28;20048;-72
2021/04/30 10:27:48;;;;;;;1999.90;999.90;;;10.50;99.90;;;;;;5085466;28;20098;-72
2021/04/30 10:30:15;;;;;;;1999.90;999.90;;;10.60;99.90;;;;;;5075792;28;20052;-72
2021/04/30 10:32:58;;;;;;;1999.90;999.90;;;10.70;99.90;;;;;;5091138;28;20104;-72
2021/04/30 10:35:32;;;;;;;1999.90;999.90;;;10.80;99.90;;;;;;5082297;28;20048;-72
2021/04/30 10:38:04;;;;;;;1999.90;999.90;;;10.90;99.90;;;;;;5074095;28;20043;-72
2021/04/30 10:40:31;;;;;;;1999.90;999.90;;;11.10;99.90;;;;;;5071101;28;20048;-72
2021/04/30 10:42:58;;;;;;;1999.90;999.90;;;11.30;99.90;;;;;;5089046;28;20155;-72
2021/04/30 10:45:25;;;;;;;1999.90;999.90;;;11.50;99.90;;;;;;5075044;28;20062;-72
2021/04/30 10:48:08;;;;;;;1999.90;999.90;;;11.60;99.90;;;;;;5091463;28;20423;-72
2021/04/30 10:50:36;;;;;;;1999.90;999.90;;;11.70;99.90;;;;;;5086539;28;20137;-72
2021/04/30 10:53:22;;;;;;;1999.90;999.90;;;11.80;99.90;;;;;;5090420;28;20082;-72
2021/04/30 10:55:49;;;;;;;1999.90;999.90;;;11.80;99.90;;;;;;5085646;28;20051;-72
2021/04/30 10:58:37;;;;;;;1999.90;999.90;;;11.80;99.90;;;;;;5085102;28;20441;-71
2021/04/30 11:01:28;;;;;;;1999.90;999.90;;;11.80;99.90;;;;;;5084405;28;20111;-72
2021/04/30 11:04:10;;;;;;;1999.90;999.90;;;11.90;99.90;;;;;;5086717;28;20090;-71
2021/04/30 11:06:53;;;;;;;1999.90;999.90;;;11.80;99.90;;;;;;5070837;28;20052;-72
2021/04/30 11:09:37;;;;;;;1999.90;999.90;;;11.80;99.90;;;;;;5089023;28;20475;-72
2021/04/30 11:12:22;;;;;;;1999.90;999.90;;;11.70;99.90;;;;;;5086836;28;20380;-72
2021/04/30 11:15:04;;;;;;;1999.90;999.90;;;11.70;99.90;;;;;;5091028;28;20816;-72
2021/04/30 11:17:52;;;;;;;1999.90;999.90;;;11.60;99.90;;;;;;5087137;28;20091;-72
2021/04/30 11:20:21;;;;;;;1999.90;999.90;;;11.70;99.90;;;;;;5085884;28;20044;-72
2021/04/30 11:23:13;;;;;;;1999.90;999.90;;;11.90;99.90;;;;;;5075443;28;20052;-72
2021/04/30 11:25:58;;;;;;;1999.90;999.90;;;12.20;99.90;;;;;;5073329;28;20044;-72
2021/04/30 11:28:31;;;;;;;1999.90;999.90;;;12.30;99.90;;;;;;5068360;28;20075;-72
2021/04/30 11:31:04;;;;;;;1999.90;999.90;;;12.40;99.90;;;;;;5086747;28;20059;-72
2021/04/30 11:33:31;;;;;;;1999.90;999.90;;;12.40;99.90;;;;;;5087809;28;20476;-72
2021/04/30 11:35:59;;;;;;;1999.90;999.90;;;12.50;99.90;;;;;;5087228;28;20127;-72
2021/04/30 11:38:47;;;;;;;1999.90;999.90;;;12.50;99.90;;;;;;5089715;28;20044;-72
2021/04/30 11:41:14;;;;;;;1999.90;999.90;;;12.60;99.90;;;;;;5082169;28;20127;-72
2021/04/30 11:43:49;;;;;;;1999.90;999.90;;;12.70;99.90;;;;;;5073339;28;20505;-72
2021/04/30 11:46:15;;;;;;;1999.90;999.90;;;12.70;99.90;;;;;;5087337;28;20383;-72
2021/04/30 11:48:43;;;;;;;1999.90;999.90;;;12.60;99.90;;;;;;5078551;28;20054;-72
2021/04/30 11:51:12;;;;;;;1999.90;999.90;;;12.70;99.90;;;;;;5087026;28;20075;-72
2021/04/30 11:53:42;;;;;;;1999.90;999.90;;;12.60;99.90;;;;;;5088354;28;20135;-72
2021/04/30 11:56:09;;;;;;;1999.90;999.90;;;12.70;99.90;;;;;;5086290;28;20126;-72
2021/04/30 11:58:40;;;;;;;1999.90;999.90;;;12.80;99.90;;;;;;5081407;28;20054;-72
2021/04/30 12:01:08;;;;;;;1999.90;999.90;;;12.90;99.90;;;;;;5081519;28;20491;-72
2021/04/30 12:03:46;;;;;;;1999.90;999.90;;;13.00;99.90;;;;;;5084944;28;20048;-72
2021/04/30 12:06:16;;;;;;;1999.90;999.90;;;13.10;99.90;;;;;;5077406;28;20105;-72
2021/04/30 12:08:43;;;;;;;1999.90;999.90;;;13.30;99.90;;;;;;5077481;28;20132;-72
2021/04/30 12:11:27;;;;;;;1999.90;999.90;;;13.50;99.90;;;;;;5071068;28;20052;-71
2021/04/30 12:13:57;;;;;;;1999.90;999.90;;;13.70;99.90;;;;;;5061670;28;20106;-72
2021/04/30 12:16:27;;;;;;;1999.90;999.90;;;13.80;99.90;;;;;;5069207;28;20048;-72
2021/04/30 12:18:55;;;;;;;1999.90;999.90;;;13.90;99.90;;;;;;5082858;28;20096;-72
2021/04/30 12:21:28;;;;;;;1999.90;999.90;;;13.80;99.90;;;;;;5084524;28;20123;-71
2021/04/30 12:23:55;;;;;;;1999.90;999.90;;;13.70;99.90;;;;;;5080148;28;20498;-71
2021/04/30 12:26:30;;;;;;;1999.90;999.90;;;13.70;99.90;;;;;;5084625;28;20051;-72
2021/04/30 12:28:57;;;;;;;1999.90;999.90;;;13.70;99.90;;;;;;5082428;28;20063;-72
2021/04/30 12:31:25;;;;;;;1999.90;999.90;;;13.70;99.90;;;;;;5083089;28;20162;-72
2021/04/30 12:33:54;;;;;;;1999.90;999.90;;;13.90;99.90;;;;;;5082862;28;20052;-72
2021/04/30 12:36:22;;;;;;;1999.90;999.90;;;14.00;99.90;;;;;;5068013;28;20040;-71
2021/04/30 12:38:54;;;;;;;1999.90;999.90;;;14.10;99.90;;;;;;5077652;28;20123;-72
2021/04/30 12:41:25;;;;;;;1999.90;999.90;;;14.30;99.90;;;;;;5085980;28;20421;-72
2021/04/30 12:43:57;;;;;;;1999.90;999.90;;;14.40;99.90;;;;;;5081051;28;20037;-72
2021/04/30 12:46:29;;;;;;;1999.90;999.90;;;14.50;99.90;;;;;;5085193;28;20050;-72
2021/04/30 12:49:23;;;;;;;1999.90;999.90;;;14.70;99.90;;;;;;5071499;28;20483;-72
2021/04/30 12:51:54;;;;;;;1999.90;999.90;;;14.60;99.90;;;;;;5059197;28;20064;-72
2021/04/30 12:54:34;;;;;;;1999.90;999.90;;;14.70;99.90;;;;;;5073838;28;20055;-72
2021/04/30 12:57:09;;;;;;;1999.90;999.90;;;14.50;99.90;;;;;;5083831;28;20410;-71
2021/04/30 12:59:36;;;;;;;1999.90;999.90;;;14.40;99.90;;;;;;5079900;28;20059;-72
2021/04/30 13:02:10;;;;;;;1999.90;999.90;;;14.30;99.90;;;;;;5089720;28;20402;-71
2021/04/30 13:04:43;;;;;;;1999.90;999.90;;;14.20;99.90;;;;;;5084929;28;20400;-71
2021/04/30 13:07:10;;;;;;;1999.90;999.90;;;14.20;99.90;;;;;;5092872;28;20062;-72
2021/04/30 13:09:39;;;;;;;1999.90;999.90;;;14.10;99.90;;;;;;5080834;28;20066;-72
2021/04/30 13:12:11;;;;;;;;;;;14.10;99.90;;;;;;5082646;28;20079;-72
2021/04/30 13:14:55;;;;;;;1999.90;999.90;;;14.00;99.90;;;;;;5082246;28;19947;-72
2021/04/30 13:17:25;;;;;;;1999.90;999.90;;;14.00;99.90;;;;;;5085149;28;20135;-72
2021/04/30 13:20:13;;;;;;;1999.90;999.90;;;13.90;99.90;;;;;;5086085;28;20043;-72
2021/04/30 13:22:39;;;;;;;1999.90;999.90;;;13.80;99.90;;;;;;5091828;28;20075;-72
2021/04/30 13:25:06;;;;;;;1999.90;999.90;;;13.70;99.90;;;;;;5090295;28;20044;-72
2021/04/30 13:28:25;;;;;;;1999.90;999.90;;;13.60;99.90;;;;;;5073453;28;20098;-71
2021/04/30 13:30:54;;;;;;;1999.90;999.90;;;13.60;99.90;;;;;;5042891;28;20040;-72
2021/04/30 13:33:22;;;;;;;1999.90;999.90;;;13.60;99.90;;;;;;5087835;28;20054;-72
2021/04/30 13:35:53;;;;;;;1999.90;999.90;;;13.70;99.90;;;;;;5084260;28;20557;-72
2021/04/30 13:38:23;;;;;;;1999.90;999.90;;;13.70;99.90;;;;;;5089200;28;20050;-72
2021/04/30 13:40:50;;;;;;;1999.90;999.90;;;13.80;99.90;;;;;;5090479;28;20127;-72
2021/04/30 13:43:33;;;;;;;1999.90;999.90;;;13.80;99.90;;;;;;5083941;28;20042;-72
2021/04/30 13:46:16;;;;;;;1999.90;999.90;;;13.80;99.90;;;;;;5083797;28;20043;-72
2021/04/30 13:48:44;;;;;;;1999.90;999.90;;;13.80;99.90;;;;;;5089119;28;20044;-72
2021/04/30 13:51:12;;;;;;;1999.90;999.90;;;13.80;99.90;;;;;;5086370;28;20087;-72
2021/04/30 13:53:39;;;;;;;1999.90;999.90;;;13.80;99.90;;;;;;5086770;28;20135;-72
2021/04/30 13:56:06;;;;;;;1999.90;999.90;;;13.90;99.90;;;;;;5085935;28;20036;-72
2021/04/30 13:58:32;;;;;;;1999.90;999.90;;;14.00;99.90;;;;;;5084646;28;20051;-72
2021/04/30 14:01:00;;;;;;;1999.90;999.90;;;14.10;99.90;;;;;;5088884;28;20131;-72
2021/04/30 14:03:26;;;;;;;1999.90;999.90;;;14.10;99.90;;;;;;5088763;28;20491;-72
2021/04/30 14:05:53;;;;;;;1999.90;999.90;;;14.20;99.90;;;;;;5074933;28;20068;-72
2021/04/30 14:08:19;;;;;;;1999.90;999.90;;;14.20;99.90;;;;;;5088293;28;20487;-72
2021/04/30 14:10:49;;;;;;;1999.90;999.90;;;14.20;99.90;;;;;;5091885;28;20040;-72
2021/04/30 14:13:16;;;;;;;1999.90;999.90;;;14.30;99.90;;;;;;5075137;28;20732;-72
2021/04/30 14:15:43;;;;;;;1999.90;999.90;;;14.20;99.90;;;;;;5082432;28;20047;-72
2021/04/30 14:18:09;;;;;;;1999.90;999.90;;;14.20;99.90;;;;;;5089991;28;20040;-72
2021/04/30 14:20:35;;;;;;;1999.90;999.90;;;14.20;99.90;;;;;;5086481;28;20040;-72
2021/04/30 14:23:01;;;;;;;1999.90;999.90;;;14.30;99.90;;;;;;5090193;28;20040;-72
2021/04/30 14:25:33;;;;;;;1999.90;999.90;;;14.30;99.90;;;;;;5071016;28;20056;-72
2021/04/30 14:27:59;;;;;;;1999.90;999.90;;;14.50;99.90;;;;;;5109123;27;20501;-72
2021/04/30 14:30:25;;;;;;;1999.90;999.90;;;14.70;99.90;;;;;;5083801;28;20355;-72
2021/04/30 14:32:52;;;;;;;1999.90;999.90;;;15.10;99.90;;;;;;5082528;28;20039;-72
2021/04/30 14:35:18;;;;;;;1999.90;999.90;;;15.50;99.90;;;;;;5084476;28;20139;-72
2021/04/30 14:37:45;;;;;;;1999.90;999.90;;;15.80;99.90;;;;;;5083861;28;20089;-72
2021/04/30 14:40:11;;;;;;;1999.90;999.90;;;15.90;99.90;;;;;;5070723;28;20044;-72
2021/04/30 14:42:38;;;;;;;1999.90;999.90;;;15.90;99.90;;;;;;5083458;28;20052;-72
2021/04/30 14:45:05;;;;;;;1999.90;999.90;;;15.80;99.90;;;;;;5089623;27;20415;-72
2021/04/30 14:47:31;;;;;;;1999.90;999.90;;;15.70;99.90;;;;;;5084598;28;20051;-72
2021/04/30 14:49:57;;;;;;;1999.90;999.90;;;15.50;99.90;;;;;;5063797;28;20376;-72
2021/04/30 14:52:24;;;;;;;1999.90;999.90;;;15.40;99.90;;;;;;5065833;28;20143;-72
2021/04/30 14:54:50;;;;;;;1999.90;999.90;;;15.20;99.60;;;;;;5076391;28;20066;-72
2021/04/30 14:57:18;;;;;;;1999.90;999.90;;;14.90;99.10;;;;;;5073991;28;20048;-72
2021/04/30 14:59:44;;;;;;;1999.90;999.90;;;14.60;99.10;;;;;;5063729;28;20049;-71
2021/04/30 15:02:11;;;;;;;1999.90;999.90;;;14.50;99.00;;;;;;5063451;28;20048;-72
2021/04/30 15:04:38;;;;;;;1999.90;999.90;;;14.70;99.90;;;;;;5077126;28;20655;-72
2021/04/30 15:07:05;;;;;;;1999.90;999.90;;;15.00;99.90;;;;;;5068945;28;20188;-72
2021/04/30 15:09:32;;;;;;;1999.90;999.90;;;15.30;99.90;;;;;;5072761;28;20126;-72
2021/04/30 15:11:59;;;;;;;1999.90;999.90;;;15.60;99.90;;;;;;5088283;27;20043;-72
2021/04/30 15:14:26;;;;;;;1999.90;999.90;;;15.60;99.90;;;;;;5073592;28;20054;-72
2021/04/30 15:16:55;;;;;;;1999.90;999.90;;;15.60;99.90;;;;;;5057275;28;20621;-72
2021/04/30 15:19:22;;;;;;;1999.90;999.90;;;15.40;99.30;;;;;;5092970;28;20052;-72
2021/04/30 15:21:48;;;;;;;1999.90;999.90;;;15.20;98.70;;;;;;5074121;28;20051;-72
2021/04/30 15:24:14;;;;;;;1999.90;999.90;;;14.90;98.00;;;;;;5065736;28;20486;-71
2021/04/30 15:26:41;;;;;;;1999.90;999.90;;;14.70;97.50;;;;;;5068735;28;20078;-72
2021/04/30 15:29:07;;;;;;;1999.90;999.90;;;14.40;97.00;;;;;;5054518;28;20205;-72
2021/04/30 15:31:33;;;;;;;1999.90;999.90;;;14.10;96.90;;;;;;5067174;28;20052;-71
2021/04/30 15:34:00;;;;;;;1999.90;999.90;;;14.00;96.90;;;;;;5070532;28;20540;-72
2021/04/30 15:36:26;;;;;;;1999.90;999.90;;;13.80;96.90;;;;;;5071851;28;20036;-72
2021/04/30 15:38:56;;;;;;;1999.90;999.90;;;13.60;96.50;;;;;;5080622;28;20040;-72
2021/04/30 15:41:28;;;;;;;1999.90;999.90;;;13.50;96.50;;;;;;5062336;28;20051;-72
2021/04/30 15:43:56;;;;;;;1999.90;999.90;;;13.40;96.60;;;;;;5081129;28;20040;-71
2021/04/30 15:46:22;;;;;;;1999.90;999.90;;;13.30;96.70;;;;;;5077331;28;20046;-71
2021/04/30 15:48:48;;;;;;;1999.90;999.90;;;13.30;96.90;;;;;;5063919;28;20074;-71
2021/04/30 15:51:17;;;;;;;1999.90;999.90;;;13.30;96.90;;;;;;5076958;28;20105;-72
2021/04/30 15:53:44;;;;;;;1999.90;999.90;;;13.20;96.70;;;;;;5066320;28;20052;-71
2021/04/30 15:56:10;;;;;;;1999.90;999.90;;;13.10;96.70;;;;;;5092058;27;20140;-72
2021/04/30 15:58:37;;;;;;;1999.90;999.90;;;13.00;96.70;;;;;;5063338;28;20135;-72
2021/04/30 16:01:03;;;;;;;1999.90;999.90;;;13.00;96.70;;;;;;5062760;28;20045;-72
2021/04/30 16:03:31;;;;;;;1999.90;999.90;;;12.90;96.70;;;;;;5085907;28;20039;-72
2021/04/30 16:05:58;;;;;;;1999.90;999.90;;;12.90;96.80;;;;;;5080444;28;20488;-72
2021/04/30 16:08:24;;;;;;;1999.90;999.90;;;12.80;96.80;;;;;;5066859;28;20044;-72
2021/04/30 16:10:51;;;;;;;1999.90;999.90;;;12.80;96.70;;;;;;5069526;28;20056;-72
2021/04/30 16:13:18;;;;;;;1999.90;999.90;;;12.80;96.60;;;;;;5081354;28;20068;-72
2021/04/30 16:15:44;;;;;;;1999.90;999.90;;;12.70;96.50;;;;;;5061890;28;20074;-71
2021/04/30 16:18:14;;;;;;;1999.90;999.90;;;12.70;96.60;;;;;;5076785;28;20558;-72
2021/04/30 16:20:41;;;;;;;1999.90;999.90;;;12.60;96.60;;;;;;5080870;28;20052;-71
2021/04/30 16:23:07;;;;;;;1999.90;999.90;;;12.60;96.60;;;;;;5084380;28;20099;-72
2021/04/30 16:25:53;;;;;;;1999.90;999.90;;;12.60;96.70;;;;;;5066362;28;21252;-72
2021/04/30 16:28:20;;;;;;;1999.90;999.90;;;12.60;96.90;;;;;;5061789;28;20048;-71
2021/04/30 16:30:46;;;;;;;1999.90;999.90;;;12.60;96.90;;;;;;5068190;28;20052;-72
2021/04/30 16:33:13;;;;;;;1999.90;999.90;;;12.60;97.00;;;;;;5081728;28;20453;-71
2021/04/30 16:35:39;;;;;;;1999.90;999.90;;;12.60;97.10;;;;;;5064254;28;20422;-72
2021/04/30 16:38:06;;;;;;;1999.90;999.90;;;12.60;97.10;;;;;;5088664;28;20054;-72
2021/04/30 16:40:32;;;;;;;1999.90;999.90;;;12.60;97.10;;;;;;5069990;28;20483;-72
2021/04/30 16:42:58;;;;;;;1999.90;999.90;;;12.50;97.10;;;;;;5068893;28;20119;-72
2021/04/30 16:45:25;;;;;;;1999.90;999.90;;;12.50;97.20;;;;;;5083296;28;20040;-72
2021/04/30 16:47:56;;;;;;;1999.90;999.90;;;12.40;97.20;;;;;;5071152;28;20035;-71
2021/04/30 16:50:22;;;;;;;1999.90;999.90;;;12.50;97.40;;;;;;5067177;28;20081;-71
2021/04/30 16:52:49;;;;;;;1999.90;999.90;;;12.50;97.50;;;;;;5085572;28;20071;-72
2021/04/30 16:55:16;;;;;;;1999.90;999.90;;;12.60;97.50;;;;;;5071469;28;20051;-72
2021/04/30 16:57:42;;;;;;;1999.90;999.90;;;12.60;97.30;;;;;;5086542;28;20054;-71
2021/04/30 17:00:10;;;;;;;1999.90;999.90;;;12.60;97.20;;;;;;5086426;28;20119;-72
2021/04/30 17:02:36;;;;;;;1999.90;999.90;;;12.50;97.10;;;;;;5105615;27;20075;-72
2021/04/30 17:05:04;;;;;;;1999.90;999.90;;;12.50;97.10;;;;;;5089784;28;20490;-72
2021/04/30 17:07:31;;;;;;;1999.90;999.90;;;12.40;97.20;;;;;;5083304;28;20048;-71
2021/04/30 17:09:57;;;;;;;1999.90;999.90;;;12.40;97.30;;;;;;5089426;28;20411;-71
2021/04/30 17:12:23;;;;;;;1999.90;999.90;;;12.50;97.50;;;;;;5063355;28;20517;-72
2021/04/30 17:14:49;;;;;;;1999.90;999.90;;;12.70;97.90;;;;;;5088215;28;20052;-71
2021/04/30 17:17:16;;;;;;;1999.90;999.90;;;12.90;98.10;;;;;;5073351;28;20468;-72
2021/04/30 17:19:42;;;;;;;1999.90;999.90;;;13.00;98.00;;;;;;5079522;28;20079;-72
2021/04/30 17:22:08;;;;;;;1999.90;999.90;;;13.00;97.90;;;;;;5070291;28;20050;-71
2021/04/30 17:24:35;;;;;;;1999.90;999.90;;;13.00;97.90;;;;;;5084830;28;20488;-71
2021/04/30 17:27:02;;;;;;;1999.90;999.90;;;12.90;97.70;;;;;;5089603;28;20683;-71
2021/04/30 17:29:29;;;;;;;1999.90;999.90;;;12.70;97.60;;;;;;5088963;28;20052;-71
2021/04/30 17:31:55;;;;;;;1999.90;999.90;;;12.50;97.40;;;;;;5089428;28;20048;-72
2021/04/30 17:34:21;;;;;;;1999.90;999.90;;;12.40;97.50;;;;;;5087287;28;20143;-71
2021/04/30 17:36:47;;;;;;;1999.90;999.90;;;12.30;97.60;;;;;;5069001;28;20044;-72
2021/04/30 17:39:14;;;;;;;1999.90;999.90;;;12.20;97.60;;;;;;5086497;28;20475;-72
2021/04/30 17:41:40;;;;;;;1999.90;999.90;;;12.10;97.50;;;;;;5084482;28;20132;-71
2021/04/30 17:44:06;;;;;;;1999.90;999.90;;;12.10;97.50;;;;;;5088796;28;20139;-71
2021/04/30 17:46:33;;;;;;;1999.90;999.90;;;12.00;97.40;;;;;;5069674;28;20058;-72
2021/04/30 17:48:59;;;;;;;1999.90;999.90;;;12.00;97.40;;;;;;5088945;28;20047;-71
2021/04/30 17:51:25;;;;;;;1999.90;999.90;;;11.90;97.30;;;;;;5086072;28;20059;-73
2021/04/30 17:53:51;;;;;;;1999.90;999.90;;;11.80;97.30;;;;;;5087612;28;20095;-71
2021/04/30 17:56:18;;;;;;;1999.90;999.90;;;11.80;97.30;;;;;;5086142;28;20069;-72
2021/04/30 17:58:44;;;;;;;1999.90;999.90;;;11.70;97.30;;;;;;5090086;28;20166;-72
2021/04/30 18:01:10;;;;;;;1999.90;999.90;;;11.70;97.30;;;;;;5076914;28;20475;-71
2021/04/30 18:03:37;;;;;;;1999.90;999.90;;;11.70;97.30;;;;;;5087059;28;20131;-71
2021/04/30 18:06:20;;;;;;;1999.90;999.90;;;11.70;97.30;;;;;;5089372;28;20063;-71
2021/04/30 18:08:46;;;;;;;1999.90;999.90;;;11.60;97.10;;;;;;5075117;28;20374;-71
2021/04/30 18:11:12;;;;;;;1999.90;999.90;;;11.60;97.00;;;;;;5085221;28;20082;-72
2021/04/30 18:13:39;;;;;;;1999.90;999.90;;;11.50;97.00;;;;;;5086177;28;20125;-71
2021/04/30 18:16:05;;;;;;;1999.90;999.90;;;11.40;96.90;;;;;;5085197;28;20182;-72
2021/04/30 18:18:31;;;;;;;1999.90;999.90;;;11.40;97.00;;;;;;5086914;28;20761;-71
2021/04/30 18:20:57;;;;;;;1999.90;999.90;;;11.40;97.00;;;;;;5086336;28;20123;-71
2021/04/30 18:23:23;;;;;;;1999.90;999.90;;;11.30;97.00;;;;;;5089032;28;20495;-72
2021/04/30 18:25:50;;;;;;;1999.90;999.90;;;11.30;97.00;;;;;;5086898;28;20083;-72
2021/04/30 18:28:18;;;;;;;1999.90;999.90;;;11.30;97.00;;;;;;5089568;28;20044;-71
2021/04/30 18:30:44;;;;;;;1999.90;999.90;;;11.30;97.00;;;;;;5087371;28;20422;-72
2021/04/30 18:33:10;;;;;;;1999.90;999.90;;;11.30;97.00;;;;;;5090288;28;20059;-71
2021/04/30 18:35:37;;;;;;;1999.90;999.90;;;11.30;97.30;;;;;;5078205;28;20045;-72
2021/04/30 18:38:03;;;;;;;1999.90;999.90;;;11.20;96.90;;;;;;5088727;28;20036;-71
2021/04/30 18:40:32;;;;;;;1999.90;999.90;;;11.20;96.90;;;;;;5088869;28;20402;-71
2021/04/30 18:43:01;;;;;;;1999.90;999.90;;;11.20;97.00;;;;;;5085819;28;20090;-72
2021/04/30 18:45:27;;;;;;;1999.90;999.90;;;11.10;97.20;;;;;;5070716;28;20365;-71
2021/04/30 18:48:10;;;;;;;1999.90;999.90;;;11.10;96.90;;;;;;5088055;28;20044;-71
2021/04/30 18:50:38;;;;;;;1999.90;999.90;;;11.00;96.90;;;;;;5087963;28;20050;-71
2021/04/30 18:53:05;;;;;;;1999.90;999.90;;;11.00;96.90;;;;;;5089167;28;20363;-71
2021/04/30 18:55:33;;;;;;;1999.90;999.90;;;11.00;96.90;;;;;;5087582;28;20479;-72
2021/04/30 18:57:59;;;;;;;1999.90;999.90;;;10.90;96.80;;;;;;5088696;28;20544;-71
2021/04/30 19:00:26;;;;;;;1999.90;999.90;;;10.90;96.80;;;;;;5090622;28;20450;-72
2021/04/30 19:02:52;;;;;;;1999.90;999.90;;;10.80;96.80;;;;;;5073606;28;20227;-72
2021/04/30 19:05:19;;;;;;;1999.90;999.90;;;10.80;96.80;;;;;;5089720;28;20044;-72
2021/04/30 19:07:45;;;;;;;1999.90;999.90;;;10.70;96.80;;;;;;5083773;28;20134;-72
2021/04/30 19:10:12;;;;;;;1999.90;999.90;;;10.70;96.70;;;;;;5088336;28;20052;-71
2021/04/30 19:12:39;;;;;;;1999.90;999.90;;;10.60;96.70;;;;;;5079243;28;20054;-72
2021/04/30 19:15:09;;;;;;;1999.90;999.90;;;10.60;96.80;;;;;;5086305;28;20059;-71
2021/04/30 19:17:36;;;;;;;1999.90;999.90;;;10.50;96.70;;;;;;5071146;28;20573;-71
2021/04/30 19:20:06;;;;;;;1999.90;999.90;;;10.50;96.80;;;;;;5088064;28;20048;-71
2021/04/30 19:22:42;;;;;;;1999.90;999.90;;;10.50;96.80;;;;;;5086641;28;20495;-71
2021/04/30 19:25:20;;;;;;;1999.90;999.90;;;10.50;96.80;;;;;;5063808;28;20345;-72
2021/04/30 19:27:52;;;;;;;1999.90;999.90;;;10.50;96.90;;;;;;5084102;28;20051;-71
2021/04/30 19:30:20;;;;;;;1999.90;999.90;;;10.50;96.90;;;;;;5083006;28;20063;-71
2021/04/30 19:32:48;;;;;;;1999.90;999.90;;;10.50;96.90;;;;;;5081503;28;20508;-71
2021/04/30 19:35:15;;;;;;;1999.90;999.90;;;10.40;96.90;;;;;;5070466;28;20467;-71
2021/04/30 19:37:41;;;;;;;1999.90;999.90;;;10.40;96.90;;;;;;5086097;28;20329;-72